createdAt,value
2018-12-03T00:00:22.538Z,65.80
2018-12-03T00:05:26.729Z,56.90
2018-12-03T00:07:54.510Z,61.37
2018-12-03T00:10:22.326Z,72.17
2018-12-03T00:12:50.049Z,76.53
2018-12-03T00:15:17.809Z,51.87
2018-12-03T00:17:45.606Z,41.07
2018-12-03T00:20:13.397Z,55.77
2018-12-03T00:22:41.166Z,57.03
2018-12-03T00:25:08.981Z,61.20
2018-12-03T00:27:36.740Z,47.57
2018-12-03T00:30:08.497Z,56.00
2018-12-03T00:32:36.305Z,61.50
2018-12-03T00:35:04.396Z,53.53
2018-12-03T00:37:32.162Z,49.87
2018-12-03T00:39:59.966Z,55.43
2018-12-03T00:42:27.689Z,55.83
2018-12-03T00:44:55.461Z,58.37
2018-12-03T00:47:23.178Z,53.43
2018-12-03T00:49:50.861Z,57.87
2018-12-03T00:52:18.571Z,61.50
2018-12-03T00:54:46.320Z,57.73
2018-12-03T00:57:14.042Z,67.60
2018-12-03T00:59:41.753Z,66.07
2018-12-03T01:02:14.937Z,67.90
2018-12-03T01:04:42.729Z,69.07
2018-12-03T01:07:10.637Z,72.57
2018-12-03T01:09:38.367Z,69.67
2018-12-03T01:12:06.157Z,75.67
2018-12-03T01:14:33.877Z,69.20
2018-12-03T01:17:01.598Z,54.70
2018-12-03T01:19:29.297Z,73.27
2018-12-03T01:21:57.058Z,59.80
2018-12-03T01:24:24.815Z,66.43
2018-12-03T01:26:52.502Z,78.10
2018-12-03T01:29:20.169Z,78.03
2018-12-03T01:31:47.905Z,71.50
2018-12-03T01:34:15.626Z,79.67
2018-12-03T01:36:43.333Z,70.87
2018-12-03T01:39:11.086Z,68.43
2018-12-03T01:41:38.810Z,77.37
2018-12-03T01:44:06.524Z,75.07
2018-12-03T01:46:34.261Z,69.40
2018-12-03T01:49:01.965Z,72.60
2018-12-03T01:51:29.657Z,65.43
2018-12-03T01:53:57.393Z,83.27
2018-12-03T01:56:25.102Z,79.37
2018-12-03T01:58:52.846Z,73.13
2018-12-03T02:01:20.576Z,74.70
2018-12-03T02:03:48.271Z,76.57
2018-12-03T02:06:16.076Z,77.23
2018-12-03T02:08:43.820Z,73.20
2018-12-03T02:11:11.528Z,80.00
2018-12-03T02:13:39.232Z,72.60
2018-12-03T02:16:07.006Z,74.07
2018-12-03T02:18:34.725Z,77.17
2018-12-03T02:21:02.417Z,69.87
2018-12-03T02:23:30.158Z,73.47
2018-12-03T02:25:57.884Z,75.13
2018-12-03T02:28:25.553Z,73.80
2018-12-03T02:30:53.299Z,79.27
2018-12-03T02:33:20.991Z,85.07
2018-12-03T02:35:48.697Z,78.90
2018-12-03T02:38:16.452Z,79.50
2018-12-03T02:40:44.256Z,79.63
2018-12-03T02:43:11.965Z,80.97
2018-12-03T02:45:39.718Z,79.97
2018-12-03T02:48:07.482Z,76.97
2018-12-03T02:50:35.208Z,73.77
2018-12-03T02:53:02.962Z,81.10
2018-12-03T02:55:30.693Z,79.80
2018-12-03T02:57:58.365Z,85.43
2018-12-03T03:00:26.080Z,76.60
2018-12-03T03:02:53.824Z,83.87
2018-12-03T03:05:21.533Z,84.80
2018-12-03T03:07:49.270Z,81.90
2018-12-03T03:10:16.990Z,87.97
2018-12-03T03:12:44.750Z,89.33
2018-12-03T03:15:13.419Z,78.47
2018-12-03T03:17:41.182Z,84.83
2018-12-03T03:20:10.946Z,89.87
2018-12-03T03:22:38.662Z,89.93
2018-12-03T03:25:07.577Z,95.17
2018-12-03T03:27:35.338Z,88.87
2018-12-03T03:30:03.454Z,100.43
2018-12-03T03:32:31.187Z,92.40
2018-12-03T03:34:58.913Z,87.93
2018-12-03T03:37:26.641Z,85.43
2018-12-03T03:39:54.357Z,94.53
2018-12-03T03:42:22.042Z,89.33
2018-12-03T03:44:49.782Z,87.93
2018-12-03T03:47:17.462Z,92.67
2018-12-03T03:49:45.145Z,82.17
2018-12-03T03:52:12.865Z,86.83
2018-12-03T03:54:40.582Z,81.40
2018-12-03T03:57:08.309Z,55.17
2018-12-03T03:59:36.050Z,51.90
2018-12-03T04:02:03.773Z,55.20
2018-12-03T04:04:31.438Z,56.13
2018-12-03T04:06:59.199Z,59.83
2018-12-03T04:09:26.910Z,56.23
2018-12-03T04:11:54.606Z,60.60
2018-12-03T04:14:22.342Z,65.10
2018-12-03T04:16:50.033Z,66.93
2018-12-03T04:19:17.706Z,71.33
2018-12-03T04:21:45.446Z,69.73
2018-12-03T04:24:13.186Z,69.60
2018-12-03T04:26:40.904Z,57.73
2018-12-03T04:29:08.652Z,63.73
2018-12-03T04:31:36.377Z,55.07
2018-12-03T04:34:04.186Z,62.07
2018-12-03T04:36:31.990Z,62.37
2018-12-03T04:38:59.704Z,60.20
2018-12-03T04:41:27.413Z,65.00
2018-12-03T04:43:55.150Z,53.47
2018-12-03T04:46:22.858Z,63.47
2018-12-03T04:48:50.619Z,62.67
2018-12-03T04:51:18.354Z,63.23
2018-12-03T04:53:46.093Z,61.17
2018-12-03T04:56:13.798Z,52.90
2018-12-03T04:58:41.521Z,68.53
2018-12-03T05:01:09.310Z,59.93
2018-12-03T05:03:37.024Z,73.80
2018-12-03T05:06:05.315Z,68.27
2018-12-03T05:08:33.054Z,71.50
2018-12-03T05:11:00.816Z,80.33
2018-12-03T05:13:28.606Z,60.70
2018-12-03T05:15:56.327Z,80.53
2018-12-03T05:18:24.058Z,61.50
2018-12-03T05:20:51.782Z,92.97
2018-12-03T05:23:19.524Z,80.87
2018-12-03T05:25:47.246Z,79.67
2018-12-03T05:28:14.957Z,76.57
2018-12-03T05:30:42.689Z,64.57
2018-12-03T05:33:10.483Z,67.10
2018-12-03T05:35:38.332Z,54.63
2018-12-03T05:38:06.194Z,64.30
2018-12-03T05:40:33.947Z,64.73
2018-12-03T05:43:01.686Z,60.77
2018-12-03T05:45:29.381Z,76.20
2018-12-03T05:47:57.069Z,64.60
2018-12-03T05:50:24.822Z,67.97
2018-12-03T05:52:52.532Z,82.43
2018-12-03T05:55:20.245Z,78.13
2018-12-03T05:57:48.024Z,68.77
2018-12-03T06:00:18.197Z,52.17
2018-12-03T06:02:45.941Z,52.77
2018-12-03T06:05:14.372Z,47.83
2018-12-03T06:07:42.109Z,54.13
2018-12-03T06:10:15.998Z,65.93
2018-12-03T06:12:43.716Z,46.47
2018-12-03T06:15:12.407Z,69.23
2018-12-03T06:17:40.194Z,43.03
2018-12-03T06:20:10.531Z,63.00
2018-12-03T06:22:38.262Z,55.73
2018-12-03T06:25:08.418Z,53.17
2018-12-03T06:27:36.209Z,61.83
2018-12-03T06:30:04.968Z,40.00
2018-12-03T06:32:32.753Z,49.17
2018-12-03T06:35:00.465Z,43.00
2018-12-03T06:37:28.181Z,56.47
2018-12-03T06:39:55.977Z,61.77
2018-12-03T06:42:23.670Z,66.83
2018-12-03T06:44:51.369Z,47.40
2018-12-03T06:47:19.113Z,57.77
2018-12-03T06:49:46.830Z,62.43
2018-12-03T06:52:14.529Z,59.90
2018-12-03T06:54:42.657Z,53.83
2018-12-03T06:57:10.046Z,56.73
2018-12-03T06:59:37.768Z,53.50
2018-12-03T07:02:06.142Z,52.63
2018-12-03T07:04:33.828Z,52.17
2018-12-03T07:07:01.502Z,58.97
2018-12-03T07:09:29.250Z,64.80
2018-12-03T07:11:56.946Z,72.07
2018-12-03T07:14:24.657Z,70.67
2018-12-03T07:16:52.402Z,53.80
2018-12-03T07:19:20.109Z,48.13
2018-12-03T07:21:47.804Z,55.33
2018-12-03T07:24:15.565Z,61.53
2018-12-03T07:26:43.254Z,49.83
2018-12-03T07:29:10.977Z,53.90
2018-12-03T07:31:38.723Z,53.80
2018-12-03T07:34:06.438Z,59.70
2018-12-03T07:36:34.153Z,64.47
2018-12-03T07:39:01.904Z,62.63
2018-12-03T07:41:29.644Z,73.40
2018-12-03T07:43:57.370Z,64.33
2018-12-03T07:46:25.132Z,58.73
2018-12-03T07:48:52.835Z,46.63
2018-12-03T07:51:20.582Z,53.33
2018-12-03T07:53:48.319Z,56.40
2018-12-03T07:56:16.038Z,57.30
2018-12-03T07:58:43.769Z,60.90
2018-12-03T08:01:11.507Z,56.10
2018-12-03T08:03:39.218Z,60.00
2018-12-03T08:06:06.942Z,55.70
2018-12-03T08:08:34.697Z,63.33
2018-12-03T08:11:02.474Z,58.57
2018-12-03T08:13:30.190Z,58.53
2018-12-03T08:15:58.055Z,62.43
2018-12-03T08:18:25.851Z,72.17
2018-12-03T08:21:02.123Z,74.83
2018-12-03T08:23:33.749Z,81.87
2018-12-03T08:26:01.734Z,86.20
2018-12-03T08:28:29.469Z,82.87
2018-12-03T08:30:57.188Z,74.30
2018-12-03T08:33:24.939Z,70.93
2018-12-03T08:35:52.650Z,63.00
2018-12-03T08:38:20.369Z,59.13
2018-12-03T08:40:48.117Z,56.47
2018-12-03T08:43:15.857Z,59.83
2018-12-03T08:45:43.658Z,65.17
2018-12-03T08:48:11.393Z,63.97
2018-12-03T08:50:43.953Z,71.80
2018-12-03T08:53:11.661Z,72.93
2018-12-03T08:55:39.456Z,76.93
2018-12-03T08:58:15.072Z,72.73
2018-12-03T09:00:44.230Z,76.47
2018-12-03T09:03:20.957Z,72.63
2018-12-03T09:05:48.660Z,72.30
2018-12-03T09:08:16.429Z,77.03
2018-12-03T09:10:44.461Z,75.30
2018-12-03T09:13:14.250Z,87.13
2018-12-03T09:15:42.082Z,86.93
2018-12-03T09:18:09.861Z,86.20
2018-12-03T09:20:37.572Z,92.23
2018-12-03T09:23:06.010Z,84.00
2018-12-03T09:25:33.781Z,77.07
2018-12-03T09:28:01.494Z,85.87
2018-12-03T09:30:29.214Z,81.50
2018-12-03T09:32:56.925Z,77.63
2018-12-03T09:35:24.598Z,80.67
2018-12-03T09:37:52.344Z,84.73
2018-12-03T09:40:23.064Z,88.10
2018-12-03T09:42:50.776Z,86.83
2018-12-03T09:45:18.965Z,87.37
2018-12-03T09:47:47.390Z,86.83
2018-12-03T09:50:23.302Z,87.70
2018-12-03T09:52:51.248Z,85.30
2018-12-03T09:55:20.333Z,87.10
2018-12-03T09:58:03.221Z,77.60
2018-12-03T10:00:31.071Z,81.00
2018-12-03T10:03:00.413Z,91.53
2018-12-03T10:05:32.085Z,93.30
2018-12-03T10:07:59.823Z,86.60
2018-12-03T10:10:27.556Z,83.73
2018-12-03T10:12:55.345Z,86.63
2018-12-03T10:15:26.893Z,89.47
2018-12-03T10:17:55.956Z,90.60
2018-12-03T10:20:23.910Z,98.60
2018-12-03T10:22:51.628Z,96.07
2018-12-03T10:25:19.361Z,98.33
2018-12-03T10:27:47.086Z,100.63
2018-12-03T10:30:17.369Z,103.80
2018-12-03T10:32:46.215Z,99.60
2018-12-03T10:35:14.046Z,96.87
2018-12-03T10:37:41.785Z,105.03
2018-12-03T10:40:16.105Z,105.30
2018-12-03T10:42:44.821Z,103.87
2018-12-03T10:45:14.526Z,104.57
2018-12-03T10:47:42.283Z,101.37
2018-12-03T10:50:13.145Z,98.17
2018-12-03T10:52:40.879Z,100.97
2018-12-03T10:55:10.165Z,97.50
2018-12-03T10:57:38.607Z,104.83
2018-12-03T11:00:26.557Z,88.13
2018-12-03T11:02:59.994Z,95.13
2018-12-03T11:05:35.695Z,76.37
2018-12-03T11:08:03.540Z,64.53
2018-12-03T11:10:39.245Z,66.50
2018-12-03T11:13:06.982Z,66.43
2018-12-03T11:15:34.916Z,62.70
2018-12-03T11:18:03.819Z,59.00
2018-12-03T11:20:31.557Z,70.67
2018-12-03T11:22:59.398Z,68.60
2018-12-03T11:25:34.114Z,75.77
2018-12-03T11:28:03.527Z,71.90
2018-12-03T11:30:31.599Z,67.50
2018-12-03T11:32:59.365Z,73.57
2018-12-03T11:35:29.850Z,68.67
2018-12-03T11:38:28.169Z,80.87
2018-12-03T11:40:54.369Z,79.67
2018-12-03T11:43:20.554Z,80.40
2018-12-03T11:45:46.781Z,80.60
2018-12-03T11:48:12.969Z,81.90
2018-12-03T11:50:39.150Z,82.50
2018-12-03T11:53:05.594Z,65.80
2018-12-03T11:55:31.766Z,71.50
2018-12-03T11:57:57.946Z,62.10
2018-12-03T12:00:24.195Z,57.43
2018-12-03T12:02:50.411Z,54.93
2018-12-03T12:05:16.602Z,56.97
2018-12-03T12:07:42.814Z,56.37
2018-12-03T12:10:09.121Z,53.87
2018-12-03T12:12:35.301Z,58.90
2018-12-03T12:15:01.611Z,51.00
2018-12-03T12:17:27.801Z,69.13
2018-12-03T12:19:53.985Z,55.57
2018-12-03T12:22:20.193Z,54.53
2018-12-03T12:24:46.382Z,49.50
2018-12-03T12:27:12.547Z,51.77
2018-12-03T12:29:38.771Z,52.17
2018-12-03T12:32:05.268Z,63.10
2018-12-03T12:34:31.457Z,50.77
2018-12-03T12:36:57.670Z,49.90
2018-12-03T12:39:23.834Z,45.90
2018-12-03T12:41:50.017Z,54.10
2018-12-03T12:44:16.223Z,50.87
2018-12-03T12:46:42.413Z,45.67
2018-12-03T12:49:08.602Z,58.20
2018-12-03T12:51:34.821Z,56.90
2018-12-03T12:54:01.006Z,55.23
2018-12-03T12:56:27.193Z,59.57
2018-12-03T12:58:53.397Z,54.97
2018-12-03T13:01:19.558Z,69.93
2018-12-03T13:03:45.737Z,65.33
2018-12-03T13:06:11.950Z,85.57
2018-12-03T13:08:38.134Z,55.57
2018-12-03T13:11:04.313Z,50.97
2018-12-03T13:13:30.530Z,54.27
2018-12-03T13:15:56.803Z,43.37
2018-12-03T13:18:22.980Z,45.60
2018-12-03T13:20:49.196Z,35.30
2018-12-03T13:23:15.374Z,47.23
2018-12-03T13:25:41.531Z,34.10
2018-12-03T13:28:07.726Z,43.17
2018-12-03T13:30:33.898Z,46.40
2018-12-03T13:33:00.083Z,50.30
2018-12-03T13:35:26.291Z,60.03
2018-12-03T13:37:52.531Z,60.63
2018-12-03T13:40:18.729Z,47.23
2018-12-03T13:42:45.201Z,43.63
2018-12-03T13:45:11.525Z,38.43
2018-12-03T13:47:37.746Z,45.40
2018-12-03T13:50:05.826Z,45.00
2018-12-03T13:52:31.982Z,46.47
2018-12-03T13:54:58.169Z,42.57
2018-12-03T13:57:24.380Z,38.40
2018-12-03T13:59:50.555Z,56.07
2018-12-03T14:02:16.748Z,47.87
2018-12-03T14:04:42.950Z,68.30
2018-12-03T14:07:09.251Z,42.40
2018-12-03T14:09:35.442Z,53.43
2018-12-03T14:12:02.098Z,45.87
2018-12-03T14:14:28.393Z,45.80
2018-12-03T14:16:54.700Z,47.03
2018-12-03T14:19:20.945Z,57.50
2018-12-03T14:21:47.114Z,52.40
2018-12-03T14:24:18.153Z,45.53
2018-12-03T14:26:44.361Z,46.30
2018-12-03T14:29:10.543Z,46.67
2018-12-03T14:31:36.692Z,45.83
2018-12-03T14:34:03.945Z,46.47
2018-12-03T14:36:30.154Z,88.60
2018-12-03T14:38:56.319Z,49.80
2018-12-03T14:41:22.508Z,46.33
2018-12-03T14:43:48.710Z,45.60
2018-12-03T14:46:14.855Z,50.87
2018-12-03T14:48:41.048Z,44.73
2018-12-03T14:51:07.214Z,61.30
2018-12-03T14:53:33.382Z,58.23
2018-12-03T14:55:59.580Z,59.83
2018-12-03T14:58:25.760Z,53.67
2018-12-03T15:00:51.929Z,53.20
2018-12-03T15:03:18.126Z,68.17
2018-12-03T15:05:44.282Z,69.50
2018-12-03T15:08:10.458Z,66.40
2018-12-03T15:10:36.685Z,61.77
2018-12-03T15:13:02.870Z,58.60
2018-12-03T15:15:29.043Z,59.60
2018-12-03T15:17:55.233Z,60.93
2018-12-03T15:20:21.525Z,59.63
2018-12-03T15:22:47.682Z,72.97
2018-12-03T15:25:13.880Z,68.57
2018-12-03T15:27:40.037Z,72.90
2018-12-03T15:30:06.385Z,69.87
2018-12-03T15:32:32.601Z,330.73
2018-12-03T15:34:58.761Z,59.37
2018-12-03T15:37:24.921Z,58.83
2018-12-03T15:39:51.123Z,66.80
2018-12-03T15:42:17.296Z,65.13
2018-12-03T15:44:43.459Z,75.73
2018-12-03T15:47:09.665Z,78.47
2018-12-03T15:49:35.829Z,89.53
2018-12-03T15:52:02.022Z,89.30
2018-12-03T15:54:28.249Z,107.67
2018-12-03T15:56:54.475Z,90.50
2018-12-03T15:59:20.641Z,88.07
2018-12-03T16:01:47.249Z,108.00
2018-12-03T16:04:13.418Z,92.93
2018-12-03T16:06:39.582Z,110.43
2018-12-03T16:09:07.542Z,111.27
2018-12-03T16:11:33.698Z,99.00
2018-12-03T16:13:59.850Z,100.87
2018-12-03T16:16:26.050Z,109.63
2018-12-03T16:18:52.214Z,97.03
2018-12-03T16:21:18.383Z,102.63
2018-12-03T16:23:44.632Z,88.90
2018-12-03T16:26:10.803Z,83.50
2018-12-03T16:28:36.977Z,84.07
2018-12-03T16:31:03.207Z,94.70
2018-12-03T16:33:29.406Z,80.43
2018-12-03T16:35:55.566Z,91.90
2018-12-03T16:38:21.783Z,104.17
2018-12-03T16:40:47.946Z,107.07
2018-12-03T16:43:14.104Z,93.17
2018-12-03T16:45:40.309Z,119.73
2018-12-03T16:48:06.484Z,97.57
2018-12-03T16:50:32.666Z,111.40
2018-12-03T16:52:58.865Z,99.03
2018-12-03T16:55:25.001Z,112.60
2018-12-03T16:57:51.188Z,100.10
2018-12-03T17:00:17.397Z,79.43
2018-12-03T17:02:43.577Z,86.07
2018-12-03T17:05:09.766Z,96.37
2018-12-03T17:07:35.990Z,113.50
2018-12-03T17:10:03.969Z,108.80
2018-12-03T17:12:30.146Z,94.10
2018-12-03T17:14:56.362Z,112.23
2018-12-03T17:17:22.522Z,93.10
2018-12-03T17:19:48.690Z,102.13
2018-12-03T17:22:14.888Z,95.90
2018-12-03T17:24:41.055Z,91.53
2018-12-03T17:27:07.238Z,93.33
2018-12-03T17:29:33.450Z,112.77
2018-12-03T17:31:59.759Z,106.73
2018-12-03T17:34:25.922Z,107.40
2018-12-03T17:36:52.217Z,90.70
2018-12-03T17:39:18.376Z,101.57
2018-12-03T17:41:44.615Z,97.33
2018-12-03T17:44:10.835Z,104.70
2018-12-03T17:46:37.001Z,293.27
2018-12-03T17:49:03.225Z,196.00
2018-12-03T17:51:29.474Z,101.17
2018-12-03T17:53:55.617Z,126.43
2018-12-03T17:56:21.824Z,178.97
2018-12-03T17:58:48.037Z,216.03
2018-12-03T18:01:14.214Z,128.33
2018-12-03T18:03:40.375Z,118.23
2018-12-03T18:06:06.561Z,123.13
2018-12-03T18:08:32.763Z,113.87
2018-12-03T18:10:58.952Z,105.80
2018-12-03T18:13:25.140Z,103.50
2018-12-03T18:15:51.342Z,102.80
2018-12-03T18:18:17.591Z,108.37
2018-12-03T18:20:43.795Z,148.40
2018-12-03T18:23:13.016Z,107.60
2018-12-03T18:25:41.622Z,117.80
2018-12-03T18:28:13.670Z,119.17
2018-12-03T18:30:39.883Z,110.70
2018-12-03T18:33:06.038Z,102.93
2018-12-03T18:35:32.227Z,117.10
2018-12-03T18:37:58.375Z,126.47
2018-12-03T18:40:24.542Z,108.57
2018-12-03T18:42:50.729Z,122.17
2018-12-03T18:45:16.902Z,112.53
2018-12-03T18:47:43.085Z,110.47
2018-12-03T18:50:09.919Z,97.40
2018-12-03T18:52:36.082Z,124.57
2018-12-03T18:55:02.276Z,139.40
2018-12-03T18:57:28.465Z,122.67
2018-12-03T18:59:54.646Z,161.37
2018-12-03T19:02:20.813Z,103.83
2018-12-03T19:04:47.001Z,158.00
2018-12-03T19:07:13.158Z,96.73
2018-12-03T19:09:39.321Z,117.83
2018-12-03T19:12:05.526Z,99.43
2018-12-03T19:14:31.690Z,106.17
2018-12-03T19:16:57.850Z,194.82
2018-12-03T19:19:24.043Z,94.10
2018-12-03T19:21:50.198Z,83.87
2018-12-03T19:24:16.351Z,80.53
2018-12-03T19:26:42.521Z,77.70
2018-12-03T19:29:08.698Z,84.63
2018-12-03T19:31:34.860Z,81.83
2018-12-03T19:34:01.087Z,78.23
2018-12-03T19:36:27.258Z,83.50
2018-12-03T19:38:53.490Z,96.27
2018-12-03T19:41:19.686Z,113.17
2018-12-03T19:43:45.894Z,141.30
2018-12-03T19:46:12.069Z,112.50
2018-12-03T19:48:38.264Z,119.60
2018-12-03T19:51:04.458Z,127.37
2018-12-03T19:53:30.616Z,102.27
2018-12-03T19:55:56.823Z,108.27
2018-12-03T19:58:22.978Z,91.10
2018-12-03T20:00:49.137Z,96.63
2018-12-03T20:03:15.400Z,100.53
2018-12-03T20:05:41.569Z,158.47
2018-12-03T20:08:07.746Z,93.57
2018-12-03T20:10:33.927Z,100.07
2018-12-03T20:13:00.085Z,99.63
2018-12-03T20:15:26.256Z,103.97
2018-12-03T20:17:52.462Z,94.23
2018-12-03T20:20:18.621Z,96.40
2018-12-03T20:22:44.779Z,117.23
2018-12-03T20:25:11.954Z,96.33
2018-12-03T20:27:38.382Z,86.57
2018-12-03T20:30:08.606Z,81.67
2018-12-03T20:32:34.853Z,69.40
2018-12-03T20:35:01.245Z,78.57
2018-12-03T20:37:27.409Z,74.67
2018-12-03T20:39:57.574Z,84.27
2018-12-03T20:42:23.849Z,67.73
2018-12-03T20:44:50.229Z,76.83
2018-12-03T20:47:16.537Z,103.30
2018-12-03T20:49:42.725Z,83.53
2018-12-03T20:52:08.902Z,99.70
2018-12-03T20:54:35.085Z,89.27
2018-12-03T20:57:01.293Z,94.07
2018-12-03T20:59:27.536Z,86.10
2018-12-03T21:01:53.933Z,79.20
2018-12-03T21:04:21.225Z,90.27
2018-12-03T21:06:47.813Z,237.45
2018-12-03T21:09:14.018Z,145.93
2018-12-03T21:11:40.179Z,160.87
2018-12-03T21:14:08.024Z,150.92
2018-12-03T21:16:34.229Z,113.40
2018-12-03T21:19:00.398Z,99.70
2018-12-03T21:21:26.557Z,104.87
2018-12-03T21:23:52.729Z,102.53
2018-12-03T21:26:18.901Z,127.00
2018-12-03T21:28:45.213Z,242.23
2018-12-03T21:31:11.401Z,102.37
2018-12-03T21:33:37.559Z,91.60
2018-12-03T21:36:03.721Z,90.23
2018-12-03T21:38:29.925Z,97.77
2018-12-03T21:40:56.081Z,92.57
2018-12-03T21:43:22.247Z,120.43
2018-12-03T21:45:48.433Z,93.90
2018-12-03T21:48:14.584Z,101.47
2018-12-03T21:50:40.738Z,97.70
2018-12-03T21:53:06.922Z,93.60
2018-12-03T21:55:33.091Z,86.23
2018-12-03T21:57:59.249Z,98.67
2018-12-03T22:00:25.442Z,95.80
2018-12-03T22:02:51.614Z,93.43
2018-12-03T22:05:17.808Z,111.30
2018-12-03T22:07:44.021Z,105.33
2018-12-03T22:10:10.202Z,102.13
2018-12-03T22:12:36.361Z,105.17
2018-12-03T22:15:03.509Z,93.40
2018-12-03T22:17:29.661Z,104.90
2018-12-03T22:19:55.821Z,96.57
2018-12-03T22:22:22.002Z,86.97
2018-12-03T22:24:48.162Z,93.47
2018-12-03T22:27:14.307Z,83.80
2018-12-03T22:29:40.489Z,76.00
2018-12-03T22:32:06.680Z,68.23
2018-12-03T22:34:32.852Z,68.73
2018-12-03T22:36:59.042Z,77.57
2018-12-03T22:39:25.210Z,84.47
2018-12-03T22:41:51.493Z,91.43
2018-12-03T22:44:17.691Z,98.47
2018-12-03T22:46:43.858Z,93.90
2018-12-03T22:49:10.029Z,96.63
2018-12-03T22:51:36.206Z,100.77
2018-12-03T22:54:02.386Z,97.80
2018-12-03T22:56:28.541Z,87.30
2018-12-03T22:58:56.054Z,86.73
2018-12-03T23:01:22.381Z,99.80
2018-12-03T23:03:48.568Z,84.43
2018-12-03T23:06:14.757Z,75.87
2018-12-03T23:08:40.929Z,89.77
2018-12-03T23:11:07.130Z,87.60
2018-12-03T23:13:33.333Z,85.77
2018-12-03T23:15:59.518Z,87.90
2018-12-03T23:18:25.693Z,88.57
2018-12-03T23:20:51.886Z,78.53
2018-12-03T23:23:18.038Z,75.93
2018-12-03T23:25:44.197Z,78.10
2018-12-03T23:28:10.394Z,73.10
2018-12-03T23:30:36.573Z,70.60
2018-12-03T23:33:02.772Z,72.60
2018-12-03T23:35:28.955Z,95.03
2018-12-03T23:37:55.111Z,69.70
2018-12-03T23:40:21.272Z,72.77
2018-12-03T23:42:47.479Z,70.87
2018-12-03T23:45:13.677Z,75.87
2018-12-03T23:47:39.851Z,68.77
2018-12-03T23:50:06.193Z,68.77
2018-12-03T23:52:32.345Z,68.57
2018-12-03T23:54:58.506Z,67.97
2018-12-03T23:57:25.230Z,77.10
2018-12-03T23:59:51.381Z,73.30
